METAR Data
IDs: Format: Raw Decoded Include TAF

Data at: 1142 UTC 16 Oct 2018

PFEL 161056Z AUTO 03017G26KT 10SM OVC095 03/M02 A2929 RMK AO2 PK WND 01031/1009 SLP917 T00331022
PFEL 160956Z AUTO 02020G30KT 10SM OVC090 03/M02 A2929 RMK AO2 PK WND 02030/0955 SLP918 T00331022
PFEL 160856Z AUTO 02020G27KT 10SM OVC080 03/M02 A2932 RMK AO2 PK WND 02030/0834 SLP928 T00331022 400440028 57015
PFEL 160756Z AUTO 01020G27KT 10SM FEW070 OVC085 03/M02 A2933 RMK AO2 PK WND 03031/0740 SLP933 T00331022
PFEL 160656Z AUTO 01019G27KT 10SM OVC095 03/M02 A2935 RMK AO2 PK WND 02030/0636 SLP938 T00331022
PFEL 160556Z AUTO 02020G28KT 10SM BKN080 BKN110 03/M02 A2936 RMK AO2 PK WND 03034/0508 SLP943 T00331017 10044 20033 56009
PFEL 160456Z AUTO 02023G32KT 10SM FEW070 BKN095 03/M02 A2936 RMK AO2 PK WND 02033/0438 SLP943 T00331017
PFEL 160356Z AUTO 02023G28KT 10SM OVC070 03/M02 A2938 RMK AO2 PK WND 02035/0258 SLP948 T00331017
PFEL 160256Z AUTO 02020G27KT 10SM SCT065 SCT080 04/M02 A2939 RMK AO2 PK WND 02033/0228 SLP953 T00391017 56030
PFEL 160156Z AUTO 02020G28KT 10SM FEW070 BKN110 04/M02 A2942 RMK AO2 PK WND 03028/0156 SLP964 T00391017
PFEL 160056Z AUTO 02020G32KT 10SM SCT070 04/M02 A2944 RMK AO2 PK WND 02032/0048 SLP972 T00441017
PFEL 152356Z AUTO 02019G28KT 10SM BKN070 OVC085 04/M02 A2948 RMK AO2 PK WND 01031/2344 SLP983 T00441017 10044 20033 58025
PFEL 152256Z AUTO 01023G29KT 10SM CLR 04/M02 A2951 RMK AO2 PK WND 02032/2216 SLP992 T00391017
PFEL 152156Z AUTO 01019G28KT 10SM FEW100 04/M02 A2954 RMK AO2 PK WND 02032/2115 SLP004 T00391017
PFEL 151956Z AUTO 02017G26KT 10SM CLR 04/M01 A2958 RMK AO2 PK WND 02031/1916 SLP015 T00391011
PFEL 151856Z AUTO 02019G30KT 10SM CLR 03/M01 A2958 RMK AO2 PK WND 01031/1846 SLP017 T00331006
PFEL 151756Z AUTO 02018G27KT 10SM CLR 03/M01 A2960 RMK AO2 PK WND 02032/1720 SLP024 T00331006 10039 20028 58012
PFEL 151656Z AUTO 02022G32KT 10SM CLR 03/00 A2962 RMK AO2 PK WND 02032/1654 SLP032 T00330000
PFEL 151556Z AUTO 02020G26KT 10SM CLR 03/M01 A2962 RMK AO2 PK WND 02030/1536 SLP030 T00331006
PFEL 151456Z AUTO 02017G24KT 10SM CLR 03/00 A2964 RMK AO2 SLP037 T00330000 57020
PFEL 151356Z AUTO 02017G23KT 10SM CLR 04/01 A2966 RMK AO2 PK WND 02026/1258 SLP044 T00390006
PFEL 151256Z AUTO 02018G22KT 10SM CLR 04/01 A2967 RMK AO2 SLP049 T00390011
PFEL 151156Z AUTO 02013G19KT 10SM CLR 04/01 A2970 RMK AO2 SLP057 T00390011 10044 20033 58012
PFEL 151056Z AUTO 01013KT 10SM CLR 04/01 A2972 RMK AO2 SLP063 T00390011
PFEL 150956Z AUTO 01010KT 10SM CLR 04/01 A2973 RMK AO2 SLP069 T00390006
PFEL 150856Z AUTO 01011KT 10SM CLR 04/01 A2973 RMK AO2 SLP069 T00390006 400720033 56003
PFEL 150756Z AUTO 01010KT 10SM CLR 03/01 A2973 RMK AO2 SLP069 T00330006
PFEL 150656Z AUTO 02008KT 10SM CLR 04/01 A2974 RMK AO2 SLP071 T00390011
PFEL 150556Z AUTO 02010KT 10SM CLR 04/02 A2974 RMK AO2 SLP072 T00440017 10072 20044 52001
PFEL 150456Z AUTO 01010KT 10SM CLR 05/02 A2974 RMK AO2 SLP072 T00500017
PFEL 150356Z AUTO 02012KT 10SM BKN033 06/02 A2974 RMK AO2 SLP070 T00560017
PFEL 150256Z AUTO 01010KT 10SM SCT031 06/02 A2974 RMK AO2 SLP070 T00610022 56011
PFEL 150156Z AUTO 02009KT 10SM CLR 07/02 A2974 RMK AO2 SLP073 T00670022
PFEL 150056Z AUTO 05008KT 10SM FEW039 07/02 A2976 RMK AO2 SLP077 T00720017
PFEL 142356Z AUTO 02009KT 10SM OVC043 07/03 A2977 RMK AO2 SLP081 T00720028 10072 20044 57004